Time;durP1;ratioP1;P1;durP2;ratioP2;P2;SDS_P1;SDS_P2;PMS_P1;PMS_P2;Temp;Humidity;BMP_temperature;BMP_pressure;BME280_temperature;BME280_humidity;BME280_pressure;Samples;Min_cycle;Max_cycle;Signal;HPM_P1;HPM_P2
2023/11/14 04:01:28;;;;;;;1.40;1.15;;;10.90;99.90;;;;;;5583514;23;20288;-77
2023/11/14 04:03:53;;;;;;;2.28;1.10;;;10.90;99.90;;;;;;4947546;28;20023;-78
2023/11/14 04:06:19;;;;;;;1.30;1.20;;;10.90;99.90;;;;;;4948867;28;20033;-77
2023/11/14 04:08:44;;;;;;;1.67;1.05;;;10.90;99.90;;;;;;4949354;28;20381;-78
2023/11/14 04:11:12;;;;;;;1.58;1.02;;;10.90;99.90;;;;;;4949608;28;21183;-77
2023/11/14 04:13:38;;;;;;;3.80;1.10;;;10.90;99.90;;;;;;4949180;28;20036;-78
2023/11/14 04:16:04;;;;;;;2.22;1.20;;;10.90;99.90;;;;;;4949005;28;20030;-78
2023/11/14 04:18:30;;;;;;;0.95;0.90;;;10.90;99.90;;;;;;4949395;28;20543;-78
2023/11/14 04:20:55;;;;;;;0.95;0.90;;;10.90;99.90;;;;;;4949880;28;20496;-77
2023/11/14 04:23:21;;;;;;;0.93;0.88;;;10.90;99.90;;;;;;4949133;28;20143;-79
2023/11/14 04:25:47;;;;;;;3.15;1.17;;;10.90;99.90;;;;;;4949532;28;20142;-77
2023/11/14 04:28:13;;;;;;;5.60;1.42;;;10.90;99.90;;;;;;4949687;28;20038;-78
2023/11/14 04:30:38;;;;;;;2.58;0.88;;;10.90;99.90;;;;;;4949475;28;20109;-77
2023/11/14 04:33:04;;;;;;;2.88;0.90;;;10.90;99.90;;;;;;4948791;28;20023;-78
2023/11/14 04:35:29;;;;;;;1.73;1.27;;;10.90;99.90;;;;;;4947879;29;20606;-79
2023/11/14 04:37:56;;;;;;;1.73;1.02;;;10.90;99.90;;;;;;4949384;28;20031;-77
2023/11/14 04:40:23;;;;;;;1.80;1.20;;;10.90;99.90;;;;;;4948946;28;20384;-78
2023/11/14 04:42:48;;;;;;;1.25;1.10;;;10.90;99.90;;;;;;4949191;28;20563;-78
2023/11/14 04:45:14;;;;;;;5.25;1.50;;;10.90;99.90;;;;;;4949499;28;20114;-78
2023/11/14 04:47:39;;;;;;;2.60;1.13;;;10.90;99.90;;;;;;4952660;28;20420;-78
2023/11/14 04:50:06;;;;;;;3.35;1.10;;;10.90;99.90;;;;;;4952321;28;20034;-78
2023/11/14 04:52:32;;;;;;;2.17;0.95;;;10.90;99.90;;;;;;4948820;29;20546;-77
2023/11/14 04:54:58;;;;;;;1.20;1.10;;;10.90;99.90;;;;;;4952601;28;20024;-79
2023/11/14 04:57:24;;;;;;;2.22;1.35;;;10.90;99.90;;;;;;4952950;28;20480;-77
2023/11/14 04:59:50;;;;;;;2.35;1.33;;;10.90;99.90;;;;;;4952599;28;20054;-79
2023/11/14 05:02:15;;;;;;;1.30;1.00;;;10.90;99.90;;;;;;4952175;28;20090;-78
2023/11/14 05:04:42;;;;;;;1.70;1.10;;;10.90;99.90;;;;;;4952423;28;20746;-77
2023/11/14 05:07:08;;;;;;;2.00;1.30;;;10.90;99.90;;;;;;4952461;28;20019;-79
2023/11/14 05:09:38;;;;;;;1.58;1.25;;;10.90;99.90;;;;;;4952463;28;20034;-79
2023/11/14 05:12:05;;;;;;;2.97;1.45;;;10.90;99.90;;;;;;4942801;28;20043;-78
2023/11/14 05:14:31;;;;;;;2.30;1.30;;;10.90;99.90;;;;;;4952196;28;20019;-78
2023/11/14 05:16:56;;;;;;;2.60;1.30;;;10.90;99.90;;;;;;4952269;28;20019;-78
2023/11/14 05:19:27;;;;;;;2.17;1.42;;;10.90;99.90;;;;;;4950974;28;20023;-78
2023/11/14 05:21:53;;;;;;;2.67;1.52;;;10.90;99.90;;;;;;4952636;28;20054;-77
2023/11/14 05:24:18;;;;;;;3.20;1.48;;;10.90;99.90;;;;;;4951998;28;20436;-78
2023/11/14 05:26:44;;;;;;;2.58;1.33;;;10.90;99.90;;;;;;4952224;28;20107;-78
2023/11/14 05:29:10;;;;;;;3.78;1.98;;;10.90;99.90;;;;;;4955520;28;20110;-79
2023/11/14 05:31:36;;;;;;;3.10;1.85;;;10.90;99.90;;;;;;4951827;28;20027;-79
2023/11/14 05:34:02;;;;;;;2.25;1.85;;;10.90;99.90;;;;;;4951742;28;20067;-78
2023/11/14 05:36:28;;;;;;;6.13;2.08;;;10.90;99.90;;;;;;4952008;28;20031;-78
2023/11/14 05:38:53;;;;;;;3.33;1.80;;;10.90;99.90;;;;;;4951901;28;20038;-78
2023/11/14 05:41:19;;;;;;;3.20;1.80;;;10.90;99.90;;;;;;4951660;28;20089;-78
2023/11/14 05:43:45;;;;;;;2.53;1.50;;;10.90;99.90;;;;;;4951641;28;20055;-78
2023/11/14 05:46:11;;;;;;;3.05;1.75;;;10.90;99.90;;;;;;4951230;28;20028;-78
2023/11/14 05:48:37;;;;;;;4.10;1.58;;;10.90;99.90;;;;;;4949803;28;20031;-79
2023/11/14 05:51:03;;;;;;;2.30;1.75;;;10.90;99.90;;;;;;4950744;28;20058;-78
2023/11/14 05:53:30;;;;;;;3.03;1.60;;;10.90;99.90;;;;;;4951436;28;20238;-78
2023/11/14 05:55:56;;;;;;;6.53;2.08;;;10.90;99.90;;;;;;4950664;28;20042;-79
2023/11/14 05:58:22;;;;;;;6.45;1.98;;;10.90;99.90;;;;;;4950762;28;20027;-78
2023/11/14 06:00:48;;;;;;;3.95;1.88;;;10.90;99.90;;;;;;4950085;28;20388;-78
2023/11/14 06:03:13;;;;;;;3.22;1.67;;;10.90;99.90;;;;;;4949960;29;20520;-78
2023/11/14 06:05:39;;;;;;;5.78;1.75;;;10.90;99.90;;;;;;4951446;28;20038;-78
2023/11/14 06:08:05;;;;;;;2.78;1.70;;;10.90;99.90;;;;;;4951476;28;20086;-77
2023/11/14 06:10:30;;;;;;;2.72;1.58;;;10.90;99.90;;;;;;4951464;28;20027;-77
2023/11/14 06:12:58;;;;;;;3.05;1.65;;;10.90;99.90;;;;;;4950564;28;20204;-77
2023/11/14 06:15:24;;;;;;;3.05;1.80;;;10.90;99.90;;;;;;4951182;28;20020;-78
2023/11/14 06:17:50;;;;;;;1.52;1.42;;;10.90;99.90;;;;;;4951449;28;20099;-78
2023/11/14 06:20:15;;;;;;;5.50;2.05;;;10.90;99.90;;;;;;4952672;28;20102;-78
2023/11/14 06:22:41;;;;;;;4.35;1.55;;;10.90;99.90;;;;;;4949815;28;20019;-78
2023/11/14 06:25:07;;;;;;;2.03;1.25;;;10.90;99.90;;;;;;4950671;28;20023;-78
2023/11/14 06:27:33;;;;;;;1.92;1.38;;;10.90;99.90;;;;;;4950940;28;20480;-77
2023/11/14 06:29:59;;;;;;;1.42;1.10;;;10.80;99.90;;;;;;4951470;28;20019;-78
2023/11/14 06:32:25;;;;;;;1.40;1.30;;;10.90;99.90;;;;;;4950939;28;20438;-78
2023/11/14 06:34:51;;;;;;;2.80;1.25;;;10.90;99.90;;;;;;4951000;28;20514;-78
2023/11/14 06:37:18;;;;;;;1.20;0.90;;;10.90;99.90;;;;;;4950959;28;20701;-77
2023/11/14 06:39:44;;;;;;;4.70;1.20;;;10.90;99.90;;;;;;4950955;29;20423;-78
2023/11/14 06:42:09;;;;;;;2.28;1.17;;;10.90;99.90;;;;;;4950055;28;20031;-76
2023/11/14 06:44:35;;;;;;;1.42;1.13;;;10.80;99.90;;;;;;4949289;29;20012;-79
2023/11/14 06:47:02;;;;;;;2.05;1.10;;;10.90;99.90;;;;;;4950622;28;20102;-81
2023/11/14 06:49:27;;;;;;;2.83;1.10;;;10.80;99.90;;;;;;4950619;29;20094;-77
2023/11/14 06:51:53;;;;;;;2.05;1.10;;;10.90;99.90;;;;;;4950382;28;20106;-77
2023/11/14 06:54:18;;;;;;;1.10;0.98;;;10.80;99.90;;;;;;4950344;28;20035;-76
2023/11/14 06:56:44;;;;;;;3.67;1.17;;;10.90;99.90;;;;;;4950616;28;20027;-78
2023/11/14 06:59:10;;;;;;;2.25;1.10;;;10.80;99.90;;;;;;4950206;28;20054;-78
2023/11/14 07:01:36;;;;;;;2.08;1.20;;;10.90;99.90;;;;;;4950092;28;20026;-79
2023/11/14 07:04:02;;;;;;;1.55;1.10;;;10.90;99.90;;;;;;4959076;28;20384;-78
2023/11/14 07:06:28;;;;;;;1.20;1.10;;;10.90;99.90;;;;;;4950268;28;20468;-78
2023/11/14 07:08:55;;;;;;;1.50;1.30;;;10.90;99.90;;;;;;4947947;28;20719;-77
2023/11/14 07:11:21;;;;;;;2.67;1.23;;;10.90;99.90;;;;;;4946799;28;20078;-76
2023/11/14 07:13:47;;;;;;;4.80;1.35;;;10.80;99.90;;;;;;4952081;28;20031;-78
2023/11/14 07:16:13;;;;;;;2.58;1.13;;;10.80;99.90;;;;;;4953140;28;20554;-79
2023/11/14 07:18:39;;;;;;;2.83;1.35;;;10.90;99.90;;;;;;4952813;28;20027;-78
2023/11/14 07:21:05;;;;;;;1.98;1.10;;;10.90;99.90;;;;;;4953409;28;20033;-79
2023/11/14 07:23:30;;;;;;;2.45;1.20;;;10.90;99.90;;;;;;4952933;28;20051;-78
2023/11/14 07:25:56;;;;;;;2.00;1.27;;;10.90;99.90;;;;;;4953638;28;20107;-78
2023/11/14 07:28:21;;;;;;;3.53;1.15;;;10.80;99.90;;;;;;4951645;28;20061;-78
2023/11/14 07:30:48;;;;;;;2.95;1.10;;;10.90;99.90;;;;;;4952409;28;20032;-78
2023/11/14 07:33:16;;;;;;;1.85;1.23;;;10.80;99.90;;;;;;4953446;28;20030;-79
2023/11/14 07:35:42;;;;;;;2.65;1.20;;;10.80;99.90;;;;;;4949589;28;20119;-78
2023/11/14 07:38:08;;;;;;;5.10;1.30;;;10.90;99.90;;;;;;4953636;28;20531;-78
2023/11/14 07:40:33;;;;;;;2.80;1.75;;;10.80;99.90;;;;;;4952485;28;20489;-78
2023/11/14 07:43:03;;;;;;;2.75;1.40;;;10.90;99.90;;;;;;4953099;28;20024;-78
2023/11/14 07:45:32;;;;;;;2.83;1.25;;;10.80;99.90;;;;;;4947103;28;20038;-78
2023/11/14 07:47:58;;;;;;;2.22;1.10;;;10.90;99.90;;;;;;4953815;28;20023;-78
2023/11/14 07:50:24;;;;;;;2.97;1.10;;;10.90;99.90;;;;;;4963835;28;20030;-80
2023/11/14 07:52:50;;;;;;;5.97;1.15;;;10.90;99.90;;;;;;4952445;28;20034;-78
2023/11/14 07:55:16;;;;;;;6.93;1.33;;;10.80;99.90;;;;;;4950510;28;20031;-79
2023/11/14 07:57:42;;;;;;;1.58;1.13;;;10.80;99.90;;;;;;4953229;28;20027;-78
2023/11/14 08:00:11;;;;;;;1.90;1.25;;;10.80;99.90;;;;;;4951118;28;20019;-78
2023/11/14 08:02:37;;;;;;;1.15;1.00;;;10.90;99.90;;;;;;4949353;28;20122;-78
2023/11/14 08:05:03;;;;;;;3.72;1.10;;;10.80;99.90;;;;;;4952188;28;20059;-78
2023/11/14 08:07:29;;;;;;;2.53;1.13;;;10.80;99.90;;;;;;4952931;28;20031;-78
2023/11/14 08:09:54;;;;;;;1.27;1.10;;;10.90;99.90;;;;;;4952162;28;20023;-78
2023/11/14 08:12:20;;;;;;;1.83;0.90;;;12.40;99.90;;;;;;4951946;28;20496;-77
2023/11/14 08:14:45;;;;;;;3.13;0.77;;;14.20;99.90;;;;;;4952836;28;20047;-78
2023/11/14 08:17:11;;;;;;;2.58;0.82;;;14.70;99.90;;;;;;4953333;28;20037;-76
2023/11/14 08:19:37;;;;;;;0.90;0.65;;;14.60;99.90;;;;;;4953775;28;20102;-77
2023/11/14 08:22:06;;;;;;;2.13;1.23;;;13.30;99.90;;;;;;4958447;28;20480;-77
2023/11/14 08:24:33;;;;;;;1.03;0.93;;;12.40;99.90;;;;;;4968490;28;20015;-78
2023/11/14 08:26:59;;;;;;;2.65;1.20;;;11.80;99.90;;;;;;4956836;28;20419;-78
2023/11/14 08:29:24;;;;;;;2.53;0.90;;;11.50;99.90;;;;;;4955202;28;20028;-78
2023/11/14 08:31:50;;;;;;;1.95;1.00;;;11.30;99.90;;;;;;4956564;28;20404;-78
2023/11/14 08:34:15;;;;;;;1.15;0.77;;;11.20;99.90;;;;;;4957690;28;20039;-78
2023/11/14 08:36:41;;;;;;;1.73;1.10;;;11.10;99.90;;;;;;4955238;28;20106;-78
2023/11/14 08:39:10;;;;;;;2.88;0.93;;;11.10;99.90;;;;;;4956154;28;20453;-78
2023/11/14 08:41:36;;;;;;;1.02;0.90;;;11.10;99.90;;;;;;4954930;28;20030;-79
2023/11/14 08:44:02;;;;;;;1.08;0.98;;;11.00;99.90;;;;;;4957372;28;20500;-77
2023/11/14 08:46:28;;;;;;;2.28;0.90;;;11.00;99.90;;;;;;4971969;28;20484;-78
2023/11/14 08:48:54;;;;;;;1.27;1.02;;;11.00;99.90;;;;;;4955218;28;20027;-77
2023/11/14 08:51:21;;;;;;;3.70;1.05;;;11.00;99.90;;;;;;4952973;28;20027;-79
2023/11/14 08:53:46;;;;;;;4.28;1.10;;;11.00;99.90;;;;;;4957646;28;20019;-78
2023/11/14 08:56:12;;;;;;;1.10;1.00;;;10.90;99.90;;;;;;4957666;28;20491;-78
2023/11/14 08:58:38;;;;;;;1.17;0.73;;;10.90;99.90;;;;;;4956936;28;20026;-79
2023/11/14 09:01:04;;;;;;;4.68;1.17;;;10.90;99.90;;;;;;4956652;28;20071;-78
2023/11/14 09:03:30;;;;;;;4.78;0.93;;;10.90;99.90;;;;;;4954404;28;20019;-78
2023/11/14 09:05:55;;;;;;;5.05;1.00;;;10.90;99.90;;;;;;4953344;28;20027;-78
2023/11/14 09:08:21;;;;;;;1.05;0.80;;;10.90;99.90;;;;;;4957611;28;20061;-78
2023/11/14 09:10:47;;;;;;;6.25;1.10;;;10.90;99.90;;;;;;4956707;28;20035;-79
2023/11/14 09:13:12;;;;;;;1.10;0.80;;;10.90;99.90;;;;;;4958544;28;20086;-79
2023/11/14 09:15:41;;;;;;;0.95;0.80;;;10.90;99.90;;;;;;4968483;28;20112;-78
2023/11/14 09:18:07;;;;;;;1.13;0.70;;;10.80;99.90;;;;;;4956728;28;20027;-78
2023/11/14 09:20:34;;;;;;;1.35;1.00;;;10.90;99.90;;;;;;4972513;28;20041;-77
2023/11/14 09:23:00;;;;;;;2.30;0.88;;;10.90;99.90;;;;;;4953382;28;20110;-79
2023/11/14 09:25:26;;;;;;;2.00;1.10;;;10.80;99.90;;;;;;4952604;28;20015;-79
2023/11/14 09:27:52;;;;;;;1.00;0.60;;;10.90;99.90;;;;;;4955123;28;20038;-79
2023/11/14 09:30:17;;;;;;;3.75;0.82;;;10.80;99.90;;;;;;4957214;28;20384;-79
2023/11/14 09:32:43;;;;;;;1.80;0.90;;;10.80;99.90;;;;;;4952838;28;20034;-79
2023/11/14 09:35:11;;;;;;;1.35;0.90;;;10.80;99.90;;;;;;4951619;28;20046;-79
2023/11/14 09:37:37;;;;;;;1.38;1.00;;;10.80;99.90;;;;;;4950760;29;20039;-78
2023/11/14 09:40:06;;;;;;;1.02;0.77;;;10.80;99.90;;;;;;4965902;28;20038;-79
2023/11/14 09:42:32;;;;;;;4.03;1.10;;;10.80;99.90;;;;;;4954539;28;20091;-78
2023/11/14 09:44:58;;;;;;;5.20;1.13;;;10.90;99.90;;;;;;4953172;28;20478;-78
2023/11/14 09:47:24;;;;;;;3.28;1.10;;;10.80;99.90;;;;;;4952103;28;20011;-79
2023/11/14 09:49:49;;;;;;;3.47;0.90;;;10.80;99.90;;;;;;4951036;28;20093;-78
2023/11/14 09:52:15;;;;;;;2.55;1.10;;;10.90;99.90;;;;;;4951212;28;20064;-78
2023/11/14 09:54:41;;;;;;;1.02;0.93;;;10.90;99.90;;;;;;4951067;28;20110;-78
2023/11/14 09:57:08;;;;;;;4.55;1.05;;;10.90;99.90;;;;;;4966598;28;20107;-79
2023/11/14 09:59:35;;;;;;;3.13;1.33;;;10.90;99.90;;;;;;4949867;28;20114;-78
2023/11/14 10:02:02;;;;;;;4.65;1.30;;;10.90;99.90;;;;;;4964798;28;20039;-78
2023/11/14 10:04:27;;;;;;;4.43;1.42;;;10.80;99.90;;;;;;4953080;28;20019;-79
2023/11/14 10:06:55;;;;;;;2.58;1.23;;;10.80;99.90;;;;;;4953217;28;20034;-78
2023/11/14 10:09:22;;;;;;;3.30;1.13;;;10.80;99.90;;;;;;4953882;28;20027;-77
2023/11/14 10:11:47;;;;;;;2.53;1.20;;;10.80;99.90;;;;;;4950843;28;20023;-78
2023/11/14 10:14:14;;;;;;;1.75;0.90;;;10.80;99.90;;;;;;4950609;28;20035;-78
2023/11/14 10:16:40;;;;;;;2.70;1.27;;;10.90;99.90;;;;;;4953589;28;20114;-78
2023/11/14 10:19:14;;;;;;;2.50;0.98;;;10.80;99.90;;;;;;4953429;28;20427;-78
2023/11/14 10:21:40;;;;;;;1.13;1.00;;;10.80;99.90;;;;;;4950717;28;20455;-79
2023/11/14 10:24:16;;;;;;;4.95;1.05;;;10.90;99.90;;;;;;4948884;28;20082;-78
2023/11/14 10:26:53;;;;;;;4.47;0.95;;;10.80;99.90;;;;;;4966793;28;20042;-78
2023/11/14 10:29:20;;;;;;;3.10;1.08;;;10.90;99.90;;;;;;4958822;28;20051;-79
2023/11/14 10:31:46;;;;;;;3.80;1.13;;;10.80;99.90;;;;;;4955235;28;20092;-79
2023/11/14 10:34:26;;;;;;;2.53;1.10;;;10.90;99.90;;;;;;4956075;28;20035;-80
2023/11/14 10:36:54;;;;;;;6.30;0.97;;;10.90;99.90;;;;;;4950195;28;20019;-81
2023/11/14 10:39:20;;;;;;;1.25;0.93;;;10.90;99.90;;;;;;4952743;28;20492;-81
2023/11/14 10:41:46;;;;;;;3.25;1.20;;;10.90;99.90;;;;;;4954700;28;20404;-80
2023/11/14 10:44:13;;;;;;;6.88;0.98;;;10.90;99.90;;;;;;4954871;28;20032;-81
2023/11/14 10:46:53;;;;;;;2.50;1.05;;;10.90;99.90;;;;;;4953776;28;20019;-80
2023/11/14 10:49:20;;;;;;;4.85;0.98;;;10.90;99.90;;;;;;4952641;28;20054;-80
2023/11/14 10:51:48;;;;;;;5.28;1.75;;;10.90;99.90;;;;;;4955553;28;20023;-81
2023/11/14 10:54:14;;;;;;;3.80;1.48;;;10.90;99.90;;;;;;4957047;28;20023;-78
2023/11/14 10:56:40;;;;;;;6.43;1.10;;;10.90;99.90;;;;;;4954107;28;20401;-79
2023/11/14 10:59:10;;;;;;;3.00;1.20;;;10.90;99.90;;;;;;4955063;28;20065;-78
2023/11/14 11:01:36;;;;;;;;;;;10.90;99.90;;;;;;4953667;28;20149;-78
2023/11/14 11:04:03;;;;;;;2.67;1.20;;;10.90;99.90;;;;;;4956598;28;19996;-79
2023/11/14 11:06:31;;;;;;;4.00;1.27;;;10.90;99.90;;;;;;4967576;28;20066;-78
2023/11/14 11:08:58;;;;;;;1.77;1.00;;;10.90;99.90;;;;;;4974488;28;20053;-78
2023/11/14 11:11:29;;;;;;;5.35;1.42;;;10.90;99.90;;;;;;4955562;28;20511;-78
2023/11/14 11:14:00;;;;;;;5.57;0.98;;;10.80;99.90;;;;;;4951415;28;20025;-78
2023/11/14 11:16:46;;;;;;;2.45;1.20;;;10.90;99.90;;;;;;4957144;28;20560;-79
2023/11/14 11:19:28;;;;;;;2.28;1.35;;;10.90;99.90;;;;;;4956043;28;20106;-78
2023/11/14 11:22:00;;;;;;;2.85;1.48;;;10.80;99.90;;;;;;4946280;28;20077;-78
2023/11/14 11:24:28;;;;;;;4.45;1.35;;;10.90;99.90;;;;;;4952038;28;20490;-78
2023/11/14 11:27:18;;;;;;;3.13;1.10;;;10.80;99.90;;;;;;4970025;28;20496;-77
2023/11/14 11:29:48;;;;;;;4.28;1.10;;;10.80;99.90;;;;;;4952527;28;20110;-78
2023/11/14 11:32:45;;;;;;;2.33;0.80;;;10.90;99.90;;;;;;4950478;28;20480;-78
2023/11/14 11:35:20;;;;;;;7.75;1.05;;;10.90;99.90;;;;;;4948586;28;20270;-79
2023/11/14 11:38:09;;;;;;;4.00;1.23;;;10.80;99.90;;;;;;4968147;28;20023;-77
2023/11/14 11:40:35;;;;;;;0.98;0.88;;;10.90;99.90;;;;;;4962413;28;20038;-77
2023/11/14 11:43:09;;;;;;;2.70;1.65;;;10.90;99.90;;;;;;4959906;28;20041;-76
2023/11/14 11:45:40;;;;;;;1.90;1.02;;;10.90;99.90;;;;;;4952393;28;20062;-78
2023/11/14 11:48:24;;;;;;;1.27;0.95;;;10.80;99.90;;;;;;4949367;28;20034;-78
2023/11/14 11:50:54;;;;;;;2.63;1.30;;;10.80;99.90;;;;;;4948950;28;20109;-78
2023/11/14 11:53:40;;;;;;;4.05;0.90;;;10.80;99.90;;;;;;4946017;28;20027;-77
2023/11/14 11:56:13;;;;;;;5.60;1.30;;;10.80;99.90;;;;;;4949519;28;20539;-77
2023/11/14 11:58:46;;;;;;;4.22;1.48;;;10.80;99.90;;;;;;4946774;29;20561;-77
2023/11/14 12:01:12;;;;;;;4.55;1.88;;;10.90;99.90;;;;;;4966204;28;20031;-78
2023/11/14 12:03:39;;;;;;;2.25;1.52;;;10.80;99.90;;;;;;4953514;28;20035;-76
2023/11/14 12:06:09;;;;;;;2.03;1.33;;;10.90;99.90;;;;;;4954151;28;20567;-78
2023/11/14 12:08:35;;;;;;;3.03;1.38;;;10.90;99.90;;;;;;4952932;28;20066;-78
2023/11/14 12:11:01;;;;;;;2.30;1.40;;;10.90;99.90;;;;;;4967831;28;20035;-77
2023/11/14 12:13:28;;;;;;;2.75;1.40;;;10.90;99.90;;;;;;4952942;28;20030;-78
2023/11/14 12:15:54;;;;;;;1.98;1.38;;;10.90;99.90;;;;;;4949198;28;20035;-76
2023/11/14 12:18:19;;;;;;;2.22;1.20;;;10.90;99.90;;;;;;4951992;28;20034;-77
2023/11/14 12:20:45;;;;;;;1.60;1.30;;;10.90;99.90;;;;;;4950192;28;20059;-77
2023/11/14 12:23:11;;;;;;;5.97;1.30;;;10.80;99.90;;;;;;4951319;28;20016;-78
2023/11/14 12:25:37;;;;;;;1.88;1.30;;;10.80;99.90;;;;;;4954728;28;20496;-77
2023/11/14 12:28:03;;;;;;;5.13;1.30;;;10.80;99.90;;;;;;4953345;28;20026;-76
2023/11/14 12:30:29;;;;;;;4.13;1.50;;;10.80;99.90;;;;;;4953025;28;20033;-78
2023/11/14 12:33:09;;;;;;;3.80;1.13;;;10.80;99.90;;;;;;4949512;28;20568;-77
2023/11/14 12:35:44;;;;;;;;;;;10.80;99.90;;;;;;4955752;28;20555;-77
2023/11/14 12:38:09;;;;;;;1.38;1.00;;;10.90;99.90;;;;;;4951285;28;19914;-83
2023/11/14 12:40:35;;;;;;;5.18;1.23;;;10.80;99.90;;;;;;4953337;28;20026;-83
2023/11/14 12:43:00;;;;;;;1.90;1.27;;;10.80;99.90;;;;;;4951067;28;20527;-82
2023/11/14 12:45:27;;;;;;;1.85;1.30;;;10.90;99.90;;;;;;4954149;28;20031;-82
2023/11/14 12:47:55;;;;;;;5.65;1.30;;;10.90;99.90;;;;;;4954031;28;20023;-82
2023/11/14 12:50:23;;;;;;;2.88;1.17;;;10.90;99.90;;;;;;4953775;28;20074;-82
2023/11/14 12:52:51;;;;;;;4.95;1.58;;;10.90;99.90;;;;;;4953073;28;20031;-83
2023/11/14 12:55:17;;;;;;;3.70;1.77;;;10.80;99.90;;;;;;4952689;28;20039;-82
2023/11/14 12:57:42;;;;;;;4.95;1.25;;;10.80;99.90;;;;;;4947742;28;20027;-82
2023/11/14 13:00:12;;;;;;;5.85;1.67;;;10.80;99.90;;;;;;4951405;28;20109;-82
2023/11/14 13:02:38;;;;;;;0.80;0.80;;;10.90;99.90;;;;;;4966147;28;20106;-82
2023/11/14 13:05:07;;;;;;;1.45;1.27;;;10.80;99.90;;;;;;4954111;28;20708;-82
2023/11/14 13:07:33;;;;;;;4.53;1.50;;;10.90;99.90;;;;;;4951821;28;20031;-82
2023/11/14 13:10:00;;;;;;;2.78;1.50;;;10.90;99.90;;;;;;4957052;28;20023;-82
2023/11/14 13:12:26;;;;;;;4.05;1.40;;;10.90;99.90;;;;;;4957509;28;20027;-82
2023/11/14 13:14:51;;;;;;;2.85;1.20;;;10.90;99.90;;;;;;4969964;28;20024;-82
2023/11/14 13:17:17;;;;;;;1.27;1.00;;;10.90;99.90;;;;;;4959035;28;20027;-82
2023/11/14 13:19:44;;;;;;;9.07;1.35;;;10.90;99.90;;;;;;4953106;28;20128;-82
2023/11/14 13:22:10;;;;;;;2.00;1.10;;;10.90;99.90;;;;;;4953403;28;20070;-82
2023/11/14 13:24:36;;;;;;;2.50;1.23;;;10.90;99.90;;;;;;4977091;28;20050;-83
2023/11/14 13:27:02;;;;;;;2.30;1.35;;;10.90;99.90;;;;;;4957969;28;20045;-82
2023/11/14 13:29:28;;;;;;;1.95;1.20;;;10.90;99.90;;;;;;4957643;28;20114;-83
2023/11/14 13:31:54;;;;;;;1.60;0.90;;;10.90;99.90;;;;;;4954964;28;20078;-82
2023/11/14 13:34:19;;;;;;;1.40;1.05;;;10.90;99.90;;;;;;4956474;28;20031;-82
2023/11/14 13:36:45;;;;;;;2.97;1.30;;;10.90;99.90;;;;;;4955815;28;20617;-82
2023/11/14 13:39:12;;;;;;;1.92;1.10;;;10.90;99.90;;;;;;4957872;28;20031;-82
2023/11/14 13:41:38;;;;;;;1.58;1.10;;;10.90;99.90;;;;;;4955487;28;20019;-83
2023/11/14 13:44:04;;;;;;;4.63;1.17;;;10.90;99.90;;;;;;4957309;28;20091;-82
2023/11/14 13:46:30;;;;;;;1.27;0.95;;;10.90;99.90;;;;;;4956517;28;20579;-84
2023/11/14 13:48:56;;;;;;;1.50;1.00;;;10.90;99.90;;;;;;4946060;28;20030;-82
2023/11/14 13:51:22;;;;;;;2.60;1.00;;;10.90;99.90;;;;;;4935369;28;20059;-82
2023/11/14 13:53:47;;;;;;;2.08;0.95;;;10.90;99.90;;;;;;4950521;28;20131;-82
2023/11/14 13:56:13;;;;;;;1.05;0.93;;;10.90;99.90;;;;;;4934329;28;20039;-82
2023/11/14 13:58:39;;;;;;;7.78;1.20;;;10.90;99.90;;;;;;4936470;28;20110;-82
2023/11/14 14:01:06;;;;;;;1.83;1.15;;;10.80;99.90;;;;;;4953582;28;20114;-83
2023/11/14 14:03:32;;;;;;;4.22;0.90;;;10.90;99.90;;;;;;4969920;28;20031;-82
2023/11/14 14:05:58;;;;;;;1.42;1.10;;;10.80;99.90;;;;;;4952143;28;20070;-82
2023/11/14 14:08:24;;;;;;;1.67;0.93;;;10.90;99.90;;;;;;4956831;28;20046;-83
2023/11/14 14:10:50;;;;;;;3.72;1.20;;;10.80;99.90;;;;;;4959529;28;20022;-83
2023/11/14 14:13:20;;;;;;;2.25;1.20;;;10.80;99.90;;;;;;4953833;28;20555;-82
2023/11/14 14:15:46;;;;;;;1.83;1.00;;;10.80;99.90;;;;;;4954694;28;20047;-82
2023/11/14 14:18:12;;;;;;;4.07;1.10;;;10.90;99.90;;;;;;4953185;28;20038;-82
2023/11/14 14:20:38;;;;;;;2.92;0.80;;;10.90;99.90;;;;;;4977054;28;20491;-82
2023/11/14 14:23:04;;;;;;;2.10;1.23;;;10.90;99.90;;;;;;4957697;28;20019;-82
2023/11/14 14:25:29;;;;;;;5.80;1.10;;;10.80;99.90;;;;;;4955520;28;20023;-83
2023/11/14 14:27:55;;;;;;;5.10;1.15;;;10.80;99.90;;;;;;4952248;28;20019;-82
2023/11/14 14:30:22;;;;;;;1.48;1.15;;;10.80;99.90;;;;;;4952976;28;20035;-82
2023/11/14 14:32:48;;;;;;;1.05;1.00;;;10.80;99.90;;;;;;4961042;28;20019;-82
2023/11/14 14:35:14;;;;;;;2.40;1.02;;;10.80;99.90;;;;;;4960386;28;20514;-82
2023/11/14 14:37:41;;;;;;;2.92;1.10;;;10.80;99.90;;;;;;4972469;28;20026;-83
2023/11/14 14:40:09;;;;;;;2.17;1.30;;;10.80;99.90;;;;;;4952845;28;20392;-83
2023/11/14 14:42:40;;;;;;;2.78;1.80;;;10.80;99.90;;;;;;4953929;28;20023;-82
2023/11/14 14:45:11;;;;;;;1.83;1.10;;;10.80;99.90;;;;;;4955672;28;20023;-82
2023/11/14 14:47:37;;;;;;;3.80;1.55;;;10.80;99.90;;;;;;4958651;28;20030;-83
2023/11/14 14:50:07;;;;;;;1.80;1.10;;;10.80;99.90;;;;;;4953211;28;20031;-85
2023/11/14 14:52:33;;;;;;;1.43;1.17;;;10.90;99.90;;;;;;4955606;28;20046;-82
2023/11/14 14:54:58;;;;;;;3.78;1.40;;;10.80;99.90;;;;;;4958911;28;20018;-82
2023/11/14 14:57:24;;;;;;;1.88;1.10;;;10.80;99.90;;;;;;4959034;28;20039;-82
2023/11/14 14:59:51;;;;;;;0.75;0.75;;;10.80;99.90;;;;;;4956633;28;20510;-82
2023/11/14 15:02:18;;;;;;;1.45;0.90;;;10.80;99.90;;;;;;4969171;28;20027;-83
2023/11/14 15:04:44;;;;;;;1.65;1.30;;;10.80;99.90;;;;;;4967186;28;20018;-83
2023/11/14 15:07:14;;;;;;;1.38;0.90;;;10.80;99.90;;;;;;4957077;28;20031;-82
2023/11/14 15:09:43;;;;;;;3.13;0.90;;;10.80;99.90;;;;;;4951497;28;20059;-82
2023/11/14 15:12:11;;;;;;;2.13;0.90;;;10.80;99.90;;;;;;4954213;28;20055;-82
2023/11/14 15:14:37;;;;;;;1.80;0.98;;;10.80;99.90;;;;;;4957401;28;20102;-81
2023/11/14 15:17:07;;;;;;;2.05;1.10;;;10.80;99.90;;;;;;4960865;28;20507;-82
2023/11/14 15:19:33;;;;;;;1.15;0.90;;;10.80;99.90;;;;;;4953583;28;20026;-82
2023/11/14 15:21:59;;;;;;;1.00;0.82;;;10.80;99.90;;;;;;4968626;28;20133;-82
2023/11/14 15:24:25;;;;;;;1.75;0.90;;;10.80;99.90;;;;;;4956200;28;20035;-82
2023/11/14 15:26:51;;;;;;;0.77;0.75;;;10.80;99.90;;;;;;4950066;28;20027;-82
2023/11/14 15:29:19;;;;;;;2.30;0.98;;;10.80;99.90;;;;;;4955358;28;20081;-82
2023/11/14 15:31:45;;;;;;;1.65;1.15;;;10.80;99.90;;;;;;4961543;28;20057;-82
2023/11/14 15:34:11;;;;;;;1.10;1.00;;;10.80;99.90;;;;;;4958329;28;20488;-82
2023/11/14 15:36:36;;;;;;;1.52;1.00;;;10.80;99.90;;;;;;4953145;28;20506;-82
2023/11/14 15:39:09;;;;;;;1.20;0.93;;;10.80;99.90;;;;;;4951838;28;20030;-82
2023/11/14 15:41:37;;;;;;;1.50;0.98;;;10.80;99.90;;;;;;4955513;28;20125;-82
2023/11/14 15:44:06;;;;;;;2.53;1.42;;;10.80;99.90;;;;;;4957185;28;20027;-81
2023/11/14 15:46:34;;;;;;;1.63;0.90;;;10.80;99.90;;;;;;4957378;28;20023;-83
2023/11/14 15:49:00;;;;;;;3.17;1.35;;;10.80;99.90;;;;;;4953798;28;20149;-82
2023/11/14 15:51:26;;;;;;;1.17;1.00;;;10.80;99.90;;;;;;4943366;28;20519;-82
2023/11/14 15:53:52;;;;;;;1.40;1.20;;;10.80;99.90;;;;;;4936040;28;20123;-83
2023/11/14 15:56:18;;;;;;;3.53;1.30;;;10.80;99.90;;;;;;4935312;28;20122;-82
2023/11/14 15:58:45;;;;;;;1.40;1.10;;;10.80;99.90;;;;;;4935842;28;20705;-82
2023/11/14 16:01:11;;;;;;;3.75;1.17;;;10.80;99.90;;;;;;4956917;28;20051;-82
2023/11/14 16:03:37;;;;;;;0.95;0.90;;;10.80;99.90;;;;;;4947716;28;20034;-82
2023/11/14 16:06:04;;;;;;;1.30;1.10;;;10.80;99.90;;;;;;4935268;28;20027;-82
2023/11/14 16:08:31;;;;;;;2.58;1.10;;;10.80;99.90;;;;;;4933895;28;20034;-82
2023/11/14 16:10:57;;;;;;;2.55;0.90;;;10.80;99.90;;;;;;4933793;28;20031;-82
2023/11/14 16:13:23;;;;;;;2.25;1.30;;;10.80;99.90;;;;;;4933568;28;20035;-84
2023/11/14 16:15:49;;;;;;;0.88;0.75;;;10.80;99.90;;;;;;4934898;29;20118;-82
2023/11/14 16:18:16;;;;;;;0.93;0.93;;;10.80;99.90;;;;;;4953450;28;20019;-82
2023/11/14 16:20:43;;;;;;;1.08;1.00;;;10.80;99.90;;;;;;4932749;28;20031;-83
2023/11/14 16:23:09;;;;;;;1.67;1.10;;;10.80;99.90;;;;;;4933144;28;20127;-82
2023/11/14 16:25:35;;;;;;;1.02;0.90;;;10.80;99.90;;;;;;4934131;28;20475;-82
2023/11/14 16:28:00;;;;;;;1.30;0.90;;;10.80;99.90;;;;;;4933863;28;20055;-82
2023/11/14 16:30:28;;;;;;;3.25;1.10;;;10.80;99.90;;;;;;4934829;28;20059;-81
2023/11/14 16:32:53;;;;;;;1.77;0.98;;;10.80;99.90;;;;;;4949390;28;20039;-82
2023/11/14 16:35:19;;;;;;;1.75;1.20;;;10.80;99.90;;;;;;4966033;28;20035;-82
2023/11/14 16:37:44;;;;;;;2.03;1.17;;;10.80;99.90;;;;;;4951378;28;20094;-81
2023/11/14 16:40:11;;;;;;;1.13;1.02;;;10.80;99.90;;;;;;4956903;28;20424;-82
2023/11/14 16:42:36;;;;;;;1.95;1.13;;;10.80;99.90;;;;;;4936698;28;20408;-82
2023/11/14 16:45:04;;;;;;;1.17;0.82;;;10.80;99.90;;;;;;4942417;28;20015;-81
2023/11/14 16:47:31;;;;;;;3.10;1.20;;;10.80;99.90;;;;;;4955816;28;20019;-81